This is the latest recevied weather packets stored in our database for station/object KD9IXX-13. If no packets are shown the sender has not sent any weather packets the latest 10 day(s).
| Time | Temp. | Humidity | Pressure | Rain* | Wind** | Luminosity | Snow |
|---|---|---|---|---|---|---|---|
| 1787506802 | 23.89° C | 53% | 1019 hPa | 0 mm | - | 574 W/m² | - |
| 1787506202 | 23.89° C | 55% | 1018.9 hPa | 0 mm | - | 644 W/m² | - |
| 1787505602 | 23.33° C | 60% | 1018.8 hPa | 0 mm | - | 678 W/m² | - |
| 1787505302 | 23.89° C | 58% | 1018.9 hPa | 0 mm | - | 674 W/m² | - |
| 1787504402 | 23.33° C | 65% | 1019 hPa | 0 mm | - | 638 W/m² | - |
| 1787504102 | 23.33° C | 65% | 1018.9 hPa | 0 mm | - | 624 W/m² | - |
| 1787503202 | 23.33° C | 65% | 1018.9 hPa | 0 mm | - | 645 W/m² | - |
| 1787502902 | 23.33° C | 64% | 1018.8 hPa | 0 mm | - | 648 W/m² | - |
| 1787502302 | 23.89° C | 66% | 1018.9 hPa | 0 mm | - | 632 W/m² | - |
| 1787501402 | 23.33° C | 70% | 1018.9 hPa | 0 mm | - | 635 W/m² | - |
| 1787501101 | 23.33° C | 67% | 1019 hPa | 0 mm | - | 634 W/m² | - |
| 1787500502 | 22.78° C | 65% | 1019.2 hPa | 0 mm | - | 646 W/m² | - |
| 1787499602 | 23.33° C | 68% | 1019 hPa | 0 mm | - | 641 W/m² | - |
| 1787498702 | 22.78° C | 67% | 1019 hPa | 0 mm | - | 635 W/m² | - |
| 1787497202 | 22.22° C | 73% | 1018.8 hPa | 0 mm | - | 603 W/m² | - |
| 1787495403 | 22.22° C | 73% | 1018.8 hPa | 0 mm | - | 575 W/m² | - |
| 1787494802 | 22.22° C | 75% | 1018.8 hPa | 0 mm | - | 529 W/m² | - |
| 1787493902 | 21.67° C | 76% | 1019 hPa | 0 mm | - | 478 W/m² | - |
| 1787493602 | 21.67° C | 76% | 1018.8 hPa | 0 mm | - | 429 W/m² | - |
| 1787492702 | 21.11° C | 78% | 1018.8 hPa | 0 mm | - | 358 W/m² | - |
| 1787491802 | 20° C | 82% | 1019.1 hPa | 0 mm | - | 296 W/m² | - |
| 1787488802 | 16.67° C | 92% | 1019 hPa | 0 mm | - | 85 W/m² | - |
| 1787488502 | 16.67° C | 93% | 1019 hPa | 0 mm | - | 46 W/m² | - |
| 1787488202 | 16.67° C | 93% | 1019 hPa | 0 mm | - | 41 W/m² | - |
| 1787487902 | 16.11° C | 94% | 1018.9 hPa | 0 mm | - | 39 W/m² | - |
* Rain latest hour (hover to see other rain measurements)
** Current wind speed in m/s (hover to see current wind gust speed)